createdAt,value
2023-02-23T00:01:07.778Z,7.35
2023-02-23T00:03:36.668Z,7.24
2023-02-23T00:06:09.256Z,7.22
2023-02-23T00:08:39.462Z,7.19
2023-02-23T00:11:11.532Z,7.28
2023-02-23T00:13:41.750Z,7.25
2023-02-23T00:16:14.283Z,7.18
2023-02-23T00:18:48.733Z,7.15
2023-02-23T00:21:20.541Z,7.07
2023-02-23T00:23:54.355Z,7.04
2023-02-23T00:26:25.164Z,7.05
2023-02-23T00:28:56.325Z,7.08
2023-02-23T00:31:27.534Z,7.13
2023-02-23T00:33:57.514Z,7.14
2023-02-23T00:36:30.346Z,7.05
2023-02-23T00:39:02.640Z,6.99
2023-02-23T00:41:31.834Z,6.97
2023-02-23T00:44:02.350Z,6.84
2023-02-23T00:46:32.186Z,6.80
2023-02-23T00:49:01.289Z,6.73
2023-02-23T00:51:32.827Z,6.68
2023-02-23T00:54:02.684Z,6.65
2023-02-23T00:56:32.288Z,6.65
2023-02-23T00:59:01.044Z,6.65
2023-02-23T01:01:30.697Z,6.64
2023-02-23T01:03:59.410Z,6.68
2023-02-23T01:06:28.360Z,6.71
2023-02-23T01:09:01.630Z,6.74
2023-02-23T01:11:31.272Z,6.77
2023-02-23T01:14:01.504Z,6.78
2023-02-23T01:16:32.132Z,6.73
2023-02-23T01:19:03.679Z,6.77
2023-02-23T01:21:34.953Z,6.71
2023-02-23T01:24:06.828Z,6.69
2023-02-23T01:26:39.283Z,6.67
2023-02-23T01:29:10.860Z,6.70
2023-02-23T01:31:40.946Z,6.69
2023-02-23T01:34:10.481Z,6.66
2023-02-23T01:36:41.909Z,6.66
2023-02-23T01:39:15.413Z,6.68
2023-02-23T01:41:43.992Z,6.68
2023-02-23T01:44:45.427Z,6.63
2023-02-23T01:47:17.496Z,6.57
2023-02-23T01:49:46.392Z,6.54
2023-02-23T01:52:19.188Z,6.55
2023-02-23T01:54:53.614Z,6.49
2023-02-23T01:57:27.346Z,6.45
2023-02-23T01:59:57.336Z,6.30
2023-02-23T02:02:35.319Z,6.26
2023-02-23T02:05:06.683Z,6.11
2023-02-23T02:07:36.950Z,6.15
2023-02-23T02:10:34.664Z,6.10
2023-02-23T02:13:06.215Z,6.10
2023-02-23T02:15:38.904Z,6.10
2023-02-23T02:18:18.945Z,6.09
2023-02-23T02:21:12.872Z,6.15
2023-02-23T02:24:11.286Z,6.15
2023-02-23T02:26:50.581Z,6.15
2023-02-23T02:29:45.282Z,6.13
2023-02-23T02:32:31.422Z,6.11
2023-02-23T02:35:38.214Z,6.02
2023-02-23T02:38:27.507Z,6.02
2023-02-23T02:41:04.073Z,5.95
2023-02-23T02:43:41.771Z,5.89
2023-02-23T02:46:17.638Z,5.81
2023-02-23T02:48:52.537Z,5.77
2023-02-23T02:51:29.078Z,5.69
2023-02-23T02:54:07.352Z,5.73
2023-02-23T02:56:40.723Z,5.64
2023-02-23T02:59:30.615Z,5.52
2023-02-23T03:02:16.835Z,5.54
2023-02-23T03:05:02.847Z,5.51
2023-02-23T03:07:55.302Z,5.48
2023-02-23T03:10:51.981Z,5.50
2023-02-23T03:13:47.069Z,5.52
2023-02-23T03:16:45.547Z,5.52
2023-02-23T03:19:36.968Z,5.50
2023-02-23T03:22:31.040Z,5.53
2023-02-23T03:25:24.015Z,5.56
2023-02-23T03:28:16.955Z,5.57
2023-02-23T03:31:10.895Z,5.58
2023-02-23T03:34:03.679Z,5.60
2023-02-23T03:36:56.106Z,5.63
2023-02-23T03:39:48.455Z,5.65
2023-02-23T03:42:40.317Z,5.66
2023-02-23T03:45:33.438Z,5.66
2023-02-23T03:48:22.902Z,5.66
2023-02-23T03:51:13.322Z,5.65
2023-02-23T03:54:04.716Z,5.63
2023-02-23T03:56:54.280Z,5.56
2023-02-23T03:59:44.594Z,5.56
2023-02-23T04:02:35.594Z,5.46
2023-02-23T04:05:26.696Z,5.50
2023-02-23T04:08:13.796Z,5.41
2023-02-23T04:11:09.149Z,5.45
2023-02-23T04:13:39.353Z,5.45
2023-02-23T04:16:08.605Z,5.46
2023-02-23T04:18:40.674Z,5.43
2023-02-23T04:21:11.066Z,5.42
2023-02-23T04:23:41.764Z,5.37
2023-02-23T04:26:11.063Z,5.38
2023-02-23T04:28:39.882Z,5.37
2023-02-23T04:31:08.368Z,5.33
2023-02-23T04:33:39.204Z,5.30
2023-02-23T04:36:09.210Z,5.25
2023-02-23T04:38:37.981Z,5.18
2023-02-23T04:41:07.010Z,5.14
2023-02-23T04:43:36.015Z,5.07
2023-02-23T04:46:04.750Z,5.08
2023-02-23T04:48:33.133Z,5.06
2023-02-23T04:51:02.967Z,5.04
2023-02-23T04:53:31.770Z,5.02
2023-02-23T04:56:00.696Z,4.95
2023-02-23T04:58:29.650Z,4.98
2023-02-23T05:01:06.389Z,4.97
2023-02-23T05:03:36.040Z,4.93
2023-02-23T05:06:06.485Z,4.92
2023-02-23T05:08:35.877Z,4.87
2023-02-23T05:11:04.389Z,4.89
2023-02-23T05:13:34.115Z,4.88
2023-02-23T05:16:03.549Z,4.81
2023-02-23T05:18:34.069Z,4.87
2023-02-23T05:21:10.212Z,4.82
2023-02-23T05:23:41.235Z,4.82
2023-02-23T05:26:13.122Z,4.85
2023-02-23T05:28:44.071Z,4.84
2023-02-23T05:31:13.886Z,4.85
2023-02-23T05:33:44.300Z,4.86
2023-02-23T05:36:17.834Z,4.85
2023-02-23T05:38:47.433Z,4.85
2023-02-23T05:41:18.262Z,4.88
2023-02-23T05:43:47.303Z,4.85
2023-02-23T05:46:19.786Z,4.89
2023-02-23T05:48:49.560Z,4.88
2023-02-23T05:51:21.106Z,4.85
2023-02-23T05:53:49.586Z,4.78
2023-02-23T05:56:21.553Z,4.75
2023-02-23T05:58:50.800Z,4.68
2023-02-23T06:01:20.800Z,4.60
2023-02-23T06:03:50.207Z,4.69
2023-02-23T06:06:20.820Z,4.72
2023-02-23T06:08:50.175Z,4.75
2023-02-23T06:11:19.006Z,4.75
2023-02-23T06:13:48.354Z,4.79
2023-02-23T06:16:17.214Z,4.81
2023-02-23T06:18:46.297Z,4.85
2023-02-23T06:21:14.804Z,4.90
2023-02-23T06:23:45.862Z,4.91
2023-02-23T06:26:14.272Z,4.91
2023-02-23T06:28:43.239Z,4.86
2023-02-23T06:31:13.353Z,4.95
2023-02-23T06:33:41.719Z,4.97
2023-02-23T06:36:10.831Z,4.92
2023-02-23T06:38:39.585Z,4.94
2023-02-23T06:41:13.641Z,4.90
2023-02-23T06:43:41.828Z,4.92
2023-02-23T06:46:10.233Z,4.96
2023-02-23T06:48:39.079Z,4.99
2023-02-23T06:51:08.621Z,5.06
2023-02-23T06:53:37.210Z,5.12
2023-02-23T06:56:07.074Z,5.13
2023-02-23T06:58:40.261Z,5.23
2023-02-23T07:01:08.760Z,5.31
2023-02-23T07:03:37.391Z,5.39
2023-02-23T07:06:06.455Z,5.44
2023-02-23T07:08:35.900Z,5.56
2023-02-23T07:11:08.455Z,5.62
2023-02-23T07:13:38.547Z,5.67
2023-02-23T07:16:07.718Z,5.76
2023-02-23T07:18:36.670Z,5.85
2023-02-23T07:21:05.708Z,5.98
2023-02-23T07:23:34.091Z,6.02
2023-02-23T07:26:03.457Z,6.06
2023-02-23T07:28:32.543Z,6.09
2023-02-23T07:31:02.889Z,6.08
2023-02-23T07:33:32.784Z,6.20
2023-02-23T07:36:01.615Z,6.20
2023-02-23T07:38:30.647Z,6.18
2023-02-23T07:40:59.667Z,6.26
2023-02-23T07:43:28.528Z,6.29
2023-02-23T07:46:03.088Z,6.32
2023-02-23T07:48:33.640Z,6.41
2023-02-23T07:51:04.282Z,6.48
2023-02-23T07:53:33.324Z,6.49
2023-02-23T07:56:03.719Z,6.52
2023-02-23T07:58:33.169Z,6.53
2023-02-23T08:01:06.088Z,6.58
2023-02-23T08:03:34.842Z,6.62
2023-02-23T08:06:04.297Z,6.70
2023-02-23T08:08:34.328Z,6.82
2023-02-23T08:11:03.258Z,6.87
2023-02-23T08:13:32.629Z,6.91
2023-02-23T08:16:03.164Z,7.00
2023-02-23T08:18:31.693Z,7.16
2023-02-23T08:21:01.558Z,7.24
2023-02-23T08:23:31.956Z,7.24
2023-02-23T08:26:00.967Z,7.15
2023-02-23T08:28:29.785Z,7.22
2023-02-23T08:30:59.567Z,7.27
2023-02-23T08:33:31.893Z,7.24
2023-02-23T08:36:03.056Z,7.29
2023-02-23T08:38:32.311Z,7.49
2023-02-23T08:41:02.768Z,7.51
2023-02-23T08:43:31.444Z,7.47
2023-02-23T08:46:00.025Z,7.54
2023-02-23T08:48:29.901Z,7.64
2023-02-23T08:50:59.287Z,7.76
2023-02-23T08:53:29.877Z,7.86
2023-02-23T08:55:59.500Z,7.76
2023-02-23T08:58:31.607Z,7.72
2023-02-23T09:01:00.246Z,7.73
2023-02-23T09:03:31.671Z,7.76
2023-02-23T09:06:07.693Z,7.82
2023-02-23T09:08:36.309Z,7.97
2023-02-23T09:11:05.567Z,8.10
2023-02-23T09:13:34.639Z,8.16
2023-02-23T09:16:04.242Z,7.99
2023-02-23T09:18:34.195Z,7.93
2023-02-23T09:21:07.097Z,8.18
2023-02-23T09:23:36.210Z,8.18
2023-02-23T09:26:06.228Z,8.09
2023-02-23T09:28:35.323Z,8.16
2023-02-23T09:31:10.042Z,8.04
2023-02-23T09:33:40.861Z,7.98
2023-02-23T09:36:13.444Z,7.95
2023-02-23T09:38:42.034Z,7.95
2023-02-23T09:41:32.144Z,7.96
2023-02-23T09:44:05.753Z,7.91
2023-02-23T09:46:43.447Z,7.84
2023-02-23T09:49:19.260Z,7.69
2023-02-23T09:51:51.853Z,7.75
2023-02-23T09:54:24.531Z,7.81
2023-02-23T09:56:56.585Z,7.88
2023-02-23T09:59:26.616Z,8.10
2023-02-23T10:02:02.485Z,8.25
2023-02-23T10:04:38.403Z,8.53
2023-02-23T10:07:14.362Z,8.57
2023-02-23T10:10:09.710Z,8.68
2023-02-23T10:12:46.883Z,8.74
2023-02-23T10:15:25.393Z,8.97
2023-02-23T10:18:04.573Z,8.89
2023-02-23T10:20:45.380Z,9.24
2023-02-23T10:23:18.668Z,9.45
2023-02-23T10:25:51.342Z,9.21
2023-02-23T10:28:22.813Z,9.50
2023-02-23T10:30:52.654Z,9.53
2023-02-23T10:33:26.103Z,9.76
2023-02-23T10:36:12.967Z,10.01
2023-02-23T10:38:42.273Z,10.13
2023-02-23T10:41:15.820Z,10.26
2023-02-23T10:43:45.591Z,10.09
2023-02-23T10:46:22.810Z,10.02
2023-02-23T10:48:56.030Z,10.16
2023-02-23T10:51:30.045Z,10.23
2023-02-23T10:54:04.993Z,9.88
2023-02-23T10:56:46.445Z,10.08
2023-02-23T10:59:22.442Z,9.92
2023-02-23T11:02:01.839Z,9.90
2023-02-23T11:04:33.029Z,9.95
2023-02-23T11:07:18.257Z,10.07
2023-02-23T11:09:48.368Z,10.09
2023-02-23T11:12:23.052Z,10.13
2023-02-23T11:14:58.586Z,10.12
2023-02-23T11:17:31.661Z,9.96
2023-02-23T11:20:03.198Z,9.82
2023-02-23T11:22:38.937Z,9.75
2023-02-23T11:25:20.370Z,9.70
2023-02-23T11:27:54.368Z,9.65
2023-02-23T11:30:25.560Z,9.49
2023-02-23T11:32:56.150Z,9.32
2023-02-23T11:35:32.145Z,9.21
2023-02-23T11:38:17.560Z,9.16
2023-02-23T11:41:01.594Z,9.24
2023-02-23T11:43:30.212Z,9.24
2023-02-23T11:46:01.263Z,9.25
2023-02-23T11:48:35.342Z,9.37
2023-02-23T11:51:05.375Z,9.51
2023-02-23T11:53:40.234Z,9.37
2023-02-23T11:56:12.872Z,9.32
2023-02-23T11:58:46.200Z,9.28
2023-02-23T12:01:17.445Z,9.23
2023-02-23T12:03:52.391Z,9.35
2023-02-23T12:06:33.283Z,9.56
2023-02-23T12:09:13.576Z,9.54
2023-02-23T12:11:48.617Z,9.49
2023-02-23T12:14:28.280Z,9.57
2023-02-23T12:17:04.243Z,9.76
2023-02-23T12:19:38.722Z,9.86
2023-02-23T12:22:14.011Z,9.92
2023-02-23T12:24:50.879Z,9.87
2023-02-23T12:27:24.486Z,9.78
2023-02-23T12:30:12.002Z,9.74
2023-02-23T12:32:48.500Z,9.75
2023-02-23T12:35:23.695Z,9.78
2023-02-23T12:37:57.615Z,9.84
2023-02-23T12:40:29.945Z,9.90
2023-02-23T12:43:06.056Z,9.92
2023-02-23T12:45:42.625Z,9.91
2023-02-23T12:48:21.045Z,9.79
2023-02-23T12:50:54.620Z,9.66
2023-02-23T12:53:27.716Z,9.82
2023-02-23T12:56:16.698Z,9.91
2023-02-23T12:58:52.495Z,9.98
2023-02-23T13:01:27.707Z,9.95
2023-02-23T13:04:23.870Z,9.98
2023-02-23T13:07:03.223Z,10.25
2023-02-23T13:09:45.783Z,10.26
2023-02-23T13:12:32.453Z,10.25
2023-02-23T13:15:13.389Z,10.12
2023-02-23T13:17:48.471Z,9.94
2023-02-23T13:20:25.600Z,10.01
2023-02-23T13:22:59.871Z,10.19
2023-02-23T13:25:38.470Z,10.12
2023-02-23T13:28:15.820Z,10.10
2023-02-23T13:30:48.114Z,10.30
2023-02-23T13:33:38.418Z,10.14
2023-02-23T13:36:14.751Z,10.07
2023-02-23T13:38:53.977Z,10.22
2023-02-23T13:41:36.740Z,10.25
2023-02-23T13:44:17.259Z,10.18
2023-02-23T13:46:51.330Z,10.12
2023-02-23T13:49:28.693Z,10.13
2023-02-23T13:52:01.946Z,10.18
2023-02-23T13:54:34.718Z,10.14
2023-02-23T13:57:05.805Z,9.96
2023-02-23T13:59:43.957Z,9.89
2023-02-23T14:02:29.018Z,9.88
2023-02-23T14:04:59.671Z,9.94
2023-02-23T14:07:31.306Z,10.01
2023-02-23T14:10:06.770Z,10.08
2023-02-23T14:12:39.878Z,10.21
2023-02-23T14:15:43.811Z,10.34
2023-02-23T14:18:35.184Z,10.40
2023-02-23T14:21:15.083Z,10.53
2023-02-23T14:23:55.698Z,10.62
2023-02-23T14:26:43.357Z,10.45
2023-02-23T14:29:27.970Z,10.39
2023-02-23T14:32:05.256Z,10.30
2023-02-23T14:34:50.108Z,10.14
2023-02-23T14:37:22.206Z,10.03
2023-02-23T14:39:52.430Z,9.90
2023-02-23T14:42:25.507Z,9.74
2023-02-23T14:44:55.726Z,9.58
2023-02-23T14:47:29.350Z,9.40
2023-02-23T14:50:00.895Z,9.41
2023-02-23T14:52:34.892Z,9.38
2023-02-23T14:55:24.136Z,9.32
2023-02-23T14:57:54.616Z,9.33
2023-02-23T15:00:26.745Z,9.34
2023-02-23T15:02:59.871Z,9.31
2023-02-23T15:05:31.475Z,9.28
2023-02-23T15:08:02.898Z,9.24
2023-02-23T15:10:35.962Z,9.19
2023-02-23T15:13:12.597Z,9.22
2023-02-23T15:15:46.518Z,9.21
2023-02-23T15:18:23.415Z,9.18
2023-02-23T15:20:52.960Z,9.13
2023-02-23T15:23:22.289Z,9.08
2023-02-23T15:25:51.404Z,9.10
2023-02-23T15:28:25.957Z,9.08
2023-02-23T15:30:56.549Z,9.03
2023-02-23T15:33:29.270Z,9.05
2023-02-23T15:36:09.847Z,9.00
2023-02-23T15:38:46.647Z,8.95
2023-02-23T15:41:23.394Z,8.93
2023-02-23T15:43:52.595Z,8.93
2023-02-23T15:46:26.697Z,8.94
2023-02-23T15:49:03.379Z,8.95
2023-02-23T15:51:37.430Z,8.99
2023-02-23T15:54:14.200Z,8.94
2023-02-23T15:56:47.549Z,8.98
2023-02-23T15:59:24.191Z,8.95
2023-02-23T16:01:56.177Z,8.94
2023-02-23T16:04:32.752Z,8.91
2023-02-23T16:07:18.782Z,8.97
2023-02-23T16:09:53.670Z,8.92
2023-02-23T16:12:26.363Z,8.93
2023-02-23T16:14:58.692Z,8.98
2023-02-23T16:17:30.837Z,8.95
2023-02-23T16:20:17.341Z,8.92
2023-02-23T16:22:47.740Z,9.02
2023-02-23T16:25:18.553Z,8.98
2023-02-23T16:27:48.628Z,8.99
2023-02-23T16:30:23.573Z,8.99
2023-02-23T16:33:08.023Z,8.96
2023-02-23T16:35:39.187Z,8.93
2023-02-23T16:38:14.862Z,8.88
2023-02-23T16:40:44.908Z,8.90
2023-02-23T16:43:13.813Z,8.88
2023-02-23T16:45:44.370Z,8.88
2023-02-23T16:48:18.157Z,8.88
2023-02-23T16:50:48.771Z,8.85
2023-02-23T16:53:17.220Z,8.82
2023-02-23T16:55:53.225Z,8.81
2023-02-23T16:58:25.643Z,8.82
2023-02-23T17:00:56.338Z,8.83
2023-02-23T17:03:27.196Z,8.79
2023-02-23T17:05:58.066Z,8.74
2023-02-23T17:08:28.991Z,8.72
2023-02-23T17:10:58.737Z,8.75
2023-02-23T17:13:29.363Z,8.74
2023-02-23T17:16:02.124Z,8.66
2023-02-23T17:18:34.322Z,8.71
2023-02-23T17:21:10.073Z,8.69
2023-02-23T17:23:42.838Z,8.69
2023-02-23T17:26:13.558Z,8.68
2023-02-23T17:28:43.378Z,8.74
2023-02-23T17:31:12.580Z,8.65
2023-02-23T17:33:42.801Z,8.67
2023-02-23T17:36:17.323Z,8.64
2023-02-23T17:38:46.855Z,8.58
2023-02-23T17:41:19.285Z,8.60
2023-02-23T17:43:48.544Z,8.57
2023-02-23T17:46:17.742Z,8.55
2023-02-23T17:48:48.861Z,8.48
2023-02-23T17:51:22.783Z,8.47
2023-02-23T17:53:52.692Z,8.50
2023-02-23T17:56:24.387Z,8.67
2023-02-23T17:58:54.360Z,8.54
2023-02-23T18:01:24.627Z,8.48
2023-02-23T18:03:53.418Z,8.43
2023-02-23T18:06:23.752Z,8.37
2023-02-23T18:08:52.427Z,8.30
2023-02-23T18:11:21.029Z,8.29
2023-02-23T18:13:51.408Z,8.25
2023-02-23T18:16:23.474Z,8.23
2023-02-23T18:18:53.008Z,8.22
2023-02-23T18:21:24.589Z,8.10
2023-02-23T18:23:54.180Z,8.12
2023-02-23T18:26:25.623Z,8.10
2023-02-23T18:28:57.485Z,8.06
2023-02-23T18:31:29.650Z,7.98
2023-02-23T18:34:02.545Z,7.83
2023-02-23T18:36:35.714Z,7.85
2023-02-23T18:39:06.937Z,7.84
2023-02-23T18:41:35.977Z,7.88
2023-02-23T18:44:08.755Z,7.92
2023-02-23T18:46:38.499Z,8.01
2023-02-23T18:49:08.080Z,8.14
2023-02-23T18:51:38.655Z,8.18
2023-02-23T18:54:11.691Z,8.28
2023-02-23T18:56:42.346Z,8.25
2023-02-23T18:59:12.570Z,8.29
2023-02-23T19:01:43.520Z,8.30
2023-02-23T19:04:13.834Z,8.27
2023-02-23T19:06:47.290Z,8.27
2023-02-23T19:09:22.101Z,8.25
2023-02-23T19:11:51.478Z,8.22
2023-02-23T19:14:32.861Z,8.24
2023-02-23T19:17:11.221Z,8.17
2023-02-23T19:19:40.480Z,8.13
2023-02-23T19:22:11.521Z,8.13
2023-02-23T19:24:41.842Z,8.13
2023-02-23T19:27:12.268Z,8.08
2023-02-23T19:29:43.056Z,8.04
2023-02-23T19:32:13.009Z,8.00
2023-02-23T19:34:42.371Z,7.93
2023-02-23T19:37:12.898Z,7.90
2023-02-23T19:39:42.710Z,7.89
2023-02-23T19:42:12.723Z,7.84
2023-02-23T19:44:42.432Z,7.83
2023-02-23T19:47:12.675Z,7.82
2023-02-23T19:49:43.601Z,7.81
2023-02-23T19:52:14.434Z,7.81
2023-02-23T19:54:44.876Z,7.73
2023-02-23T19:57:13.507Z,7.81
2023-02-23T19:59:42.564Z,7.80
2023-02-23T20:02:12.624Z,7.78
2023-02-23T20:04:41.738Z,7.73
2023-02-23T20:07:14.748Z,7.77
2023-02-23T20:09:45.441Z,7.75
2023-02-23T20:12:14.898Z,7.78
2023-02-23T20:14:45.873Z,7.70
2023-02-23T20:17:15.242Z,7.77
2023-02-23T20:19:44.136Z,7.76
2023-02-23T20:22:16.632Z,7.81
2023-02-23T20:24:45.421Z,7.79
2023-02-23T20:27:14.397Z,7.82
2023-02-23T20:29:44.414Z,7.74
2023-02-23T20:32:13.759Z,7.65
2023-02-23T20:34:43.137Z,7.59
2023-02-23T20:37:12.396Z,7.64
2023-02-23T20:39:42.470Z,7.67
2023-02-23T20:42:12.070Z,7.66
2023-02-23T20:44:40.568Z,7.72
2023-02-23T20:47:10.392Z,7.68
2023-02-23T20:49:42.039Z,7.67
2023-02-23T20:52:12.482Z,7.76
2023-02-23T20:54:44.695Z,7.75
2023-02-23T20:57:14.350Z,7.69
2023-02-23T20:59:43.561Z,7.67
2023-02-23T21:02:14.184Z,7.49
2023-02-23T21:04:44.344Z,7.45
2023-02-23T21:07:13.809Z,7.39
2023-02-23T21:09:46.005Z,7.35
2023-02-23T21:12:16.845Z,7.31
2023-02-23T21:14:45.515Z,7.31
2023-02-23T21:17:14.315Z,7.36
2023-02-23T21:19:43.265Z,7.36
2023-02-23T21:22:16.646Z,7.36
2023-02-23T21:24:49.003Z,7.43
2023-02-23T21:27:18.083Z,7.49
2023-02-23T21:29:47.495Z,7.53
2023-02-23T21:32:17.143Z,7.54
2023-02-23T21:34:46.208Z,7.63
2023-02-23T21:37:16.454Z,7.67
2023-02-23T21:39:48.395Z,7.58
2023-02-23T21:42:23.905Z,7.64
2023-02-23T21:44:53.345Z,7.53
2023-02-23T21:47:22.288Z,7.50
2023-02-23T21:49:51.267Z,7.49
2023-02-23T21:52:20.084Z,7.47
2023-02-23T21:54:52.627Z,7.43
2023-02-23T21:57:25.596Z,7.49
2023-02-23T21:59:55.349Z,7.54
2023-02-23T22:02:24.569Z,7.59
2023-02-23T22:05:08.021Z,7.55
2023-02-23T22:07:38.889Z,7.59
2023-02-23T22:10:12.495Z,7.59
2023-02-23T22:12:42.027Z,7.65
2023-02-23T22:15:11.828Z,7.70
2023-02-23T22:17:40.617Z,7.66
2023-02-23T22:20:11.557Z,7.70
2023-02-23T22:22:41.063Z,7.73
2023-02-23T22:25:13.064Z,7.77
2023-02-23T22:27:44.021Z,7.76
2023-02-23T22:30:14.172Z,7.75
2023-02-23T22:32:43.438Z,7.72
2023-02-23T22:35:13.006Z,7.63
2023-02-23T22:37:43.060Z,7.65
2023-02-23T22:40:15.816Z,7.58
2023-02-23T22:42:48.772Z,7.52
2023-02-23T22:45:19.306Z,7.46
2023-02-23T22:47:49.050Z,7.51
2023-02-23T22:50:20.063Z,7.50
2023-02-23T22:52:49.112Z,7.47
2023-02-23T22:55:22.041Z,7.47
2023-02-23T22:57:51.688Z,7.48
2023-02-23T23:00:21.218Z,7.50
2023-02-23T23:02:49.763Z,7.43
2023-02-23T23:05:20.028Z,7.51
2023-02-23T23:07:49.411Z,7.53
2023-02-23T23:10:21.516Z,7.50
2023-02-23T23:12:50.508Z,7.56
2023-02-23T23:15:23.006Z,7.51
2023-02-23T23:17:52.370Z,7.33
2023-02-23T23:20:26.244Z,7.37
2023-02-23T23:22:57.841Z,7.41
2023-02-23T23:25:30.582Z,7.37
2023-02-23T23:27:59.696Z,7.39
2023-02-23T23:30:29.612Z,7.38
2023-02-23T23:32:59.124Z,7.42
2023-02-23T23:35:29.889Z,7.40
2023-02-23T23:38:02.364Z,7.40
2023-02-23T23:40:35.938Z,7.38
2023-02-23T23:43:07.971Z,7.35
2023-02-23T23:45:40.993Z,7.32
2023-02-23T23:48:10.212Z,7.43
2023-02-23T23:50:40.373Z,7.44
2023-02-23T23:53:11.113Z,7.44
2023-02-23T23:55:41.649Z,7.46
2023-02-23T23:58:13.091Z,7.49
